Aiken, TX (79221)

7:17 AM CDT on July 26, 2016 (GMT -0500)
WT_Meso | | Change Station

Elev 3179 ft 34.00 °N, 101.33 °W | Updated 32 minutes ago

Clear
Clear
66 °F
Feels Like 66 °F
N
7
Wind Variable Wind from NW
Gusts 8.0 mph

Today
High -- | Low -- °F
--% Chance of Precip.
Yesterday
High -- | Low -- °F
Precip. -- in
Pressure 30.11 in
Visibility 10.0 miles
Clouds Clear
Dew Point 60 °F
Humidity 83%
Rainfall in
Snow Depth Not available.
6:53 AM 8:51 PM
Waning Gibbous, 55% visible
METAR KPVW 261155Z AUTO 33006KT 10SM CLR 20/17 A3011 RMK AO2 70033 T01970168 10231 20194
Pressure 30.11 in
Visibility 10.0 miles
Clouds Clear
Dew Point 60 °F
Humidity 83%
Rainfall in
Snow Depth Not available.
6:53 AM 8:51 PM
Waning Gibbous, 55% visible
METAR KPVW 261155Z AUTO 33006KT 10SM CLR 20/17 A3011 RMK AO2 70033 T01970168 10231 20194

10-Day Weather Forecast

Almanac

Astronomy

Jul. 26, 2016 Rise Set
Actual Time
Civil Twilight
Nautical Twilight
Astronomical Twilight
Moon
Length of Visible Light
Length of Day
Tomorrow will be .
, % of the Moon is Illuminated

Today's Extremes

State Highs State Lows

Community

WunderPhotos

Upload Photos

1,927,580 photos uploaded!

WunderBlog® & News

Nearby

Air Quality

  Air Quality AQ Index Pollutant
Not available.

Snow Depth

Station Depth Elevation

Earthquake Activity

City Distance Mag. Time & Date
Minimum magnitude displayed is 2.5.

Coastal Water Temperatures

Place Temperature

Stations

Nearby Weather Stations

Station Location Temp. Windchill Dew Point Humidity Wind Precip. Elev Updated Type
                   

Watches & Warnings

There are currently no watches in effect.